Latest Weather Observations for Glen Innes Airport

IDN60801

Issued at 12:32 am EST Wednesday 26 April 2017 (issued every 30 minutes, with the page automatically refreshed every 10 minutes)

About weather observations | Map of weather stations | Latest weather observations for NSW | Other Formats
Station Details ID: 056243 Name: GLEN INNES AIRPORT AWS Lat: -29.68 Lon: 151.69 Height: 1044.3 m
Data from the previous 72 hours. | See also: Recent months at Glen Innes Airport
Date/Time
EST
Temp
°C
App
Temp
°C
Dew
Point
°C
Rel
Hum
%
Delta-T
°C
Wind Press
QNH
hPa
Press
MSL
hPa
Rain since
9am
mm
Dir  Spd
km/h
Gust
km/h
Spd
kts
Gust
kts
26/12:30am 13.2 10.2 12.1 93 0.6 WNW 19 26 10 14 1017.0 1013.9 6.4
26/12:13am 13.3 11.1 12.2 93 0.6 W 15 20 8 11 1016.8 1013.8 5.4
26/12:03am 13.4 12.0 12.3 93 0.6 WSW 11 24 6 13 1017.0 1013.9 4.8
26/12:02am 13.4 12.0 12.3 93 0.6 WSW 11 24 6 13 1017.1 1014.0 4.6
26/12:00am 13.3 12.3 12.2 93 0.6 WSW 9 24 5 13 1017.1 1014.0 4.4
 
Date/Time
EST
Temp
°C
App
Temp
°C
Dew
Point
°C
Rel
Hum
%
Delta-T
°C
Wind Press
QNH
hPa
Press
MSL
hPa
Rain since
9am
mm
Dir  Spd
km/h
Gust
km/h
Spd
kts
Gust
kts
25/11:30pm 13.2 11.4 12.1 93 0.6 W 13 19 7 10 1017.6 1014.5 2.0
25/11:00pm 12.9 11.6 11.3 90 0.9 W 9 19 5 10 1017.6 1014.5 0.0
25/10:30pm 12.4 12.2 10.6 89 1.0 W 2 6 1 3 1017.2 1014.1 0.0
25/10:00pm 11.7 9.9 9.6 87 1.1 W 9 11 5 6 1017.3 1014.2 0.0
25/09:30pm 12.8 10.0 10.0 83 1.5 WNW 15 17 8 9 1017.8 1014.8 0.0
25/09:00pm 13.5 10.7 10.1 80 1.9 WNW 15 19 8 10 1017.9 1014.9 0.0
25/08:30pm 14.3 11.6 10.3 77 2.2 NW 15 20 8 11 1018.1 1015.0 0.0
25/08:00pm 14.6 13.3 11.2 80 1.9 NW 9 11 5 6 1018.3 1015.2 0.0
25/07:30pm 14.7 13.6 10.5 76 2.3 NNW 7 9 4 5 1018.3 1015.2 0.0
25/07:00pm 15.4 13.9 10.4 72 2.8 N 9 13 5 7 1017.7 1014.7 0.0
25/06:30pm 15.5 13.6 10.5 72 2.8 N 11 13 6 7 1017.6 1014.5 0.0
25/06:00pm 14.3 12.0 10.3 77 2.2 NW 13 13 7 7 1017.4 1014.3 0.0
25/05:30pm 14.9 12.7 9.5 70 2.9 NNW 11 13 6 7 1017.1 1014.0 0.0
25/05:00pm 17.2 14.8 10.1 63 4.0 N 13 15 7 8 1017.0 1013.9 0.0
25/04:30pm 18.3 16.1 10.7 61 4.3 NW 13 20 7 11 1017.2 1014.1 0.0
25/04:00pm 19.3 16.1 11.1 59 4.7 NNW 19 28 10 15 1017.4 1014.3 0.0
25/03:30pm 19.5 16.5 10.5 56 5.1 NW 17 28 9 15 1017.5 1014.4 0.0
25/03:00pm 19.8 16.1 10.2 54 5.4 NW 20 30 11 16 1017.5 1014.4 0.0
25/02:30pm 19.3 15.1 9.8 54 5.3 NW 22 30 12 16 1017.8 1014.8 0.0
25/02:00pm 20.3 16.5 11.2 56 5.3 NW 22 33 12 18 1018.1 1015.0 0.0
25/01:30pm 20.3 16.6 10.1 52 5.8 NW 20 32 11 17 1018.3 1015.2 0.0
25/01:00pm 20.3 16.4 10.7 54 5.5 NW 22 32 12 17 1018.8 1015.8 0.0
25/12:30pm 19.3 14.8 10.0 55 5.2 NNW 24 32 13 17 1019.5 1016.5 0.0
25/12:00pm 19.1 15.2 9.6 54 5.3 NW 20 32 11 17 1020.2 1017.1 0.0
25/11:30am 19.0 14.9 10.0 56 5.1 NW 22 30 12 16 1020.6 1017.6 0.0
25/11:00am 18.6 15.2 10.7 60 4.5 NW 19 26 10 14 1020.9 1017.9 0.0
25/10:30am 18.0 13.4 9.6 58 4.7 NW 24 32 13 17 1021.5 1018.5 0.0
25/10:00am 17.5 13.2 10.6 64 3.9 NW 24 33 13 18 1021.8 1018.8 0.0
25/09:30am 17.0 14.9 11.3 69 3.2 NW 13 19 7 10 1021.9 1019.0 0.0
25/09:00am 15.6 14.9 11.4 76 2.4 NNE 6 9 3 5 1022.2 1019.2 0.0
25/08:30am 13.0 12.8 11.7 92 0.7 ESE 4 7 2 4 1022.3 1019.3 0.0
25/08:00am 11.3 10.4 10.7 96 0.3 ESE 6 7 3 4 1022.2 1019.2 0.0
25/07:46am 10.1 8.7 9.5 96 0.3 ESE 7 9 4 5 1022.0 1019.1 0.0
25/07:30am 8.9 7.2 8.3 96 0.3 ESE 7 9 4 5 1021.9 1019.0 0.0
25/07:08am 8.0 6.3 7.4 96 0.3 ESE 6 7 3 4 1021.7 1018.7 0.0
25/07:00am 7.8 6.0 7.1 95 0.3 ESE 6 7 3 4 1021.7 1018.7 0.0
25/06:30am 7.5 5.1 6.8 95 0.3 E 9 11 5 6 1021.4 1018.4 0.0
25/06:00am 8.0 6.2 7.2 95 0.4 ESE 6 7 3 4 1021.3 1018.3 0.0
25/05:30am 8.4 6.5 7.6 95 0.4 ESE 7 9 4 5 1021.0 1018.1 0.0
25/05:21am 8.3 6.0 7.5 95 0.4 ESE 9 9 5 5 1021.0 1018.1 0.0
25/05:00am 8.7 6.9 7.9 95 0.4 SE 7 11 4 6 1020.9 1017.9 0.0
25/04:37am 9.0 6.9 8.4 96 0.3 ESE 9 11 5 6 1020.7 1017.7 0.0
25/04:30am 9.0 6.9 8.4 96 0.3 ESE 9 11 5 6 1020.7 1017.7 0.0
25/04:00am 9.1 7.1 8.5 96 0.3 SE 9 13 5 7 1021.0 1018.1 0.0
25/03:30am 9.2 6.8 8.6 96 0.3 ESE 11 15 6 8 1021.0 1018.1 0.0
25/03:00am 9.1 6.7 8.5 96 0.3 ESE 11 13 6 7 1021.4 1018.4 0.0
25/02:30am 9.4 7.0 8.8 96 0.3 ESE 11 13 6 7 1021.6 1018.6 0.0
25/02:00am 9.7 7.8 9.1 96 0.3 SE 9 13 5 7 1021.8 1018.8 0.0
25/01:30am 9.8 7.9 9.2 96 0.3 ESE 9 11 5 6 1021.9 1019.0 0.0
25/01:00am 8.8 6.7 8.2 96 0.3 ESE 9 9 5 5 1022.2 1019.2 0.0
25/12:30am 7.1 4.9 6.2 94 0.4 SE 7 9 4 5 1022.5 1019.5 0.0
25/12:15am 7.9 5.9 7.1 95 0.4 SE 7 9 4 5 1022.6 1019.6 0.0
25/12:00am 7.8 5.9 6.9 94 0.4 SE 6 7 3 4 1022.8 1019.9 0.0
 
Date/Time
EST
Temp
°C
App
Temp
°C
Dew
Point
°C
Rel
Hum
%
Delta-T
°C
Wind Press
QNH
hPa
Press
MSL
hPa
Rain since
9am
mm
Dir  Spd
km/h
Gust
km/h
Spd
kts
Gust
kts
24/11:30pm 7.6 4.7 6.5 93 0.5 SE 11 11 6 6 1023.0 1020.1 0.0
24/11:00pm 8.7 6.4 7.6 93 0.6 SE 9 11 5 6 1023.3 1020.3 0.0
24/10:30pm 9.6 7.9 8.4 92 0.6 SE 7 11 4 6 1023.5 1020.5 0.0
24/10:00pm 10.8 9.4 9.6 92 0.6 SE 7 11 4 6 1023.6 1020.6 0.0
24/09:30pm 10.6 8.4 9.5 93 0.6 SSE 11 13 6 7 1023.8 1020.9 0.0
24/09:00pm 10.4 8.4 8.8 90 0.8 SE 9 11 5 6 1023.7 1020.8 0.0
24/08:30pm 11.4 9.6 9.5 88 1.0 ESE 9 9 5 5 1023.5 1020.5 0.0
24/08:00pm 12.6 10.7 10.5 87 1.1 SE 11 13 6 7 1023.4 1020.4 0.0
24/07:30pm 13.2 11.7 10.4 83 1.5 E 9 13 5 7 1023.1 1020.2 0.0
24/07:00pm 13.6 11.7 10.4 81 1.8 ESE 11 13 6 7 1023.0 1020.1 0.0
24/06:30pm 13.6 11.6 10.0 79 2.0 ESE 11 11 6 6 1022.7 1019.7 0.0
24/06:00pm 14.4 11.8 9.4 72 2.7 E 13 17 7 9 1022.5 1019.5 0.0
24/05:30pm 15.5 15.6 10.1 70 3.0 CALM 0 9 0 5 1022.2 1019.2 0.0
24/05:00pm 16.3 15.3 10.4 68 3.3 NE 6 7 3 4 1021.8 1018.8 0.0
24/04:30pm 16.5 15.2 10.1 66 3.6 E 7 7 4 4 1021.7 1018.7 0.0
24/04:00pm 16.8 15.1 9.7 63 3.9 ENE 9 13 5 7 1021.6 1018.6 0.0
24/03:30pm 17.4 14.9 9.6 60 4.3 E 13 19 7 10 1021.6 1018.6 0.0
24/03:00pm 19.0 17.6 9.5 54 5.3 W 7 15 4 8 1021.7 1018.7 0.0
24/02:30pm 18.7 16.2 8.1 50 5.7 WNW 11 13 6 7 1021.6 1018.6 0.0
24/02:00pm 19.4 17.3 6.8 44 6.7 N 7 13 4 7 1021.7 1018.7 0.0
24/01:30pm 19.1 18.8 8.7 51 5.7 CALM 0 4 0 2 1021.9 1019.0 0.0
24/01:00pm 18.3 16.9 7.4 49 5.8 ESE 4 7 2 4 1022.4 1019.4 0.0
24/12:30pm 18.5 16.5 7.3 48 6.0 S 7 13 4 7 1022.7 1019.7 0.0
24/12:00pm 18.5 17.0 8.5 52 5.4 ENE 6 9 3 5 1023.1 1020.2 0.0
24/11:30am 19.0 17.0 8.6 51 5.7 E 9 17 5 9 1023.6 1020.6 0.0
24/11:00am 18.1 15.4 8.9 55 5.0 SE 13 20 7 11 1024.1 1021.2 0.0
24/10:30am 17.5 15.8 11.3 67 3.5 ESE 11 19 6 10 1024.7 1021.8 0.0
24/10:00am 16.9 14.6 10.3 65 3.7 ESE 13 17 7 9 1025.1 1022.2 0.0
24/09:30am 15.7 13.8 11.9 78 2.2 ESE 13 22 7 12 1025.3 1022.3 0.0
24/09:00am 13.7 11.5 10.9 83 1.5 ESE 13 17 7 9 1025.3 1022.3 0.0
24/08:30am 12.5 11.0 10.6 88 1.0 ESE 9 11 5 6 1025.1 1022.2 0.0
24/08:00am 10.5 8.7 9.4 93 0.6 SE 9 11 5 6 1025.0 1022.1 0.0
24/07:30am 8.8 6.3 8.2 96 0.3 SE 11 13 6 7 1024.9 1022.0 0.0
24/07:15am 8.1 6.4 7.5 96 0.3 SE 6 7 3 4 1024.7 1021.8 0.0
24/07:00am 7.0 4.1 6.4 96 0.3 ESE 11 15 6 8 1024.5 1021.6 0.0
24/06:59am 6.9 4.0 6.3 96 0.3 ESE 11 15 6 8 1024.5 1021.6 0.0
24/06:30am 6.0 3.2 5.3 95 0.3 ESE 9 11 5 6 1024.1 1021.2 0.0
24/06:00am 6.8 4.2 6.1 95 0.3 SE 9 13 5 7 1023.9 1021.0 0.0
24/05:30am 7.5 4.3 6.8 95 0.3 ESE 13 15 7 8 1023.7 1020.8 0.0
24/05:00am 8.0 4.9 7.4 96 0.3 ESE 13 17 7 9 1023.6 1020.6 0.0
24/04:30am 8.1 5.1 7.5 96 0.3 ESE 13 17 7 9 1023.6 1020.6 0.0
24/04:00am 9.0 6.2 8.4 96 0.3 SE 13 17 7 9 1023.6 1020.6 0.0
24/03:30am 9.6 6.5 9.0 96 0.3 SE 15 19 8 10 1023.5 1020.5 0.0
24/03:00am 10.0 7.4 9.4 96 0.3 SE 13 17 7 9 1023.8 1020.9 0.0
24/02:30am 10.3 7.0 9.7 96 0.3 SE 17 20 9 11 1024.0 1021.1 0.0
24/02:00am 10.5 7.7 9.9 96 0.3 SE 15 17 8 9 1024.5 1021.6 0.0
24/01:30am 10.5 8.4 9.9 96 0.3 SE 11 15 6 8 1024.5 1021.6 0.0
24/01:00am 9.5 7.2 8.9 96 0.3 SE 11 15 6 8 1024.8 1021.9 0.0
24/12:45am 8.6 5.7 8.0 96 0.3 SE 13 15 7 8 1024.8 1021.9 0.0
24/12:43am 8.5 5.5 7.9 96 0.3 SE 13 15 7 8 1024.8 1021.9 0.0
24/12:33am 7.2 3.9 6.5 95 0.3 ESE 13 17 7 9 1024.9 1022.0 0.0
24/12:30am 6.8 3.4 6.1 95 0.3 ESE 13 17 7 9 1024.9 1022.0 0.0
24/12:26am 6.3 3.2 5.6 95 0.3 ESE 11 13 6 7 1024.9 1022.0 0.0
24/12:13am 6.6 4.3 5.9 95 0.3 SE 7 11 4 6 1025.0 1022.1 0.0
24/12:00am 6.6 4.3 5.7 94 0.4 ESE 7 7 4 4 1025.1 1022.2 0.0
 
Date/Time
EST
Temp
°C
App
Temp
°C
Dew
Point
°C
Rel
Hum
%
Delta-T
°C
Wind Press
QNH
hPa
Press
MSL
hPa
Rain since
9am
mm
Dir  Spd
km/h
Gust
km/h
Spd
kts
Gust
kts
23/11:59pm 6.5 4.2 5.6 94 0.4 ESE 7 7 4 4 1025.1 1022.2 0.0
23/11:30pm 7.2 6.4 6.3 94 0.4 CALM 0 0 0 0 1025.5 1022.6 0.0
23/11:19pm 7.1 5.8 6.2 94 0.4 SE 2 6 1 3 1025.5 1022.6 0.0
23/11:00pm 7.7 5.9 7.0 95 0.3 SE 6 7 3 4 1025.5 1022.6 0.0
23/10:31pm 7.2 4.6 6.3 94 0.4 SE 9 11 5 6 1025.6 1022.7 0.0
23/10:30pm 7.3 4.8 6.4 94 0.4 SE 9 11 5 6 1025.6 1022.7 0.0
23/10:23pm 7.8 5.8 7.1 95 0.3 ESE 7 11 4 6 1025.6 1022.7 0.0
23/10:00pm 8.0 5.3 7.2 95 0.4 SE 11 13 6 7 1025.7 1022.8 0.0
23/09:30pm 8.5 6.8 7.6 94 0.5 SE 6 7 3 4 1025.8 1022.9 0.0
23/09:07pm 8.3 6.4 7.4 94 0.5 SE 7 9 4 5 1025.7 1022.8 0.0
23/09:00pm 8.3 6.3 7.2 93 0.5 SE 7 9 4 5 1025.8 1022.9 0.0
23/08:30pm 8.6 6.2 7.1 90 0.7 SSE 9 11 5 6 1025.8 1022.9 0.0
23/08:00pm 9.6 7.7 7.7 88 1.0 SE 7 9 4 5 1025.5 1022.6 0.0
23/07:30pm 11.8 10.5 10.0 89 1.0 SSE 7 11 4 6 1025.3 1022.3 0.0
23/07:00pm 12.2 10.9 10.1 87 1.1 SE 7 9 4 5 1024.9 1022.0 0.0
23/06:30pm 12.5 11.1 9.7 83 1.5 SE 7 7 4 4 1024.6 1021.7 0.0
23/06:00pm 13.3 12.1 10.3 82 1.6 SE 7 9 4 5 1024.4 1021.4 0.0
23/05:30pm 14.2 13.1 10.6 79 2.0 E 7 7 4 4 1024.1 1021.2 0.0
23/05:00pm 14.7 13.6 10.5 76 2.3 SSE 7 9 4 5 1024.0 1021.1 0.0
23/04:30pm 15.2 13.3 10.6 74 2.6 SSE 11 13 6 7 1023.9 1021.0 0.0
23/04:00pm 15.1 12.9 10.9 76 2.3 SSE 13 17 7 9 1023.8 1020.9 0.0
23/03:30pm 14.8 13.3 10.6 76 2.3 E 9 13 5 7 1023.6 1020.6 0.0
23/03:00pm 14.6 11.3 10.8 78 2.1 SSE 19 24 10 13 1024.0 1021.1 0.0
23/02:30pm 16.0 13.0 10.7 71 3.0 SSE 17 22 9 12 1023.9 1021.0 0.0
23/02:00pm 16.7 15.4 10.1 65 3.7 SSE 7 9 4 5 1023.8 1020.9 0.0
23/01:30pm 16.2 14.3 10.5 69 3.2 SSE 11 15 6 8 1024.0 1021.1 0.0
23/01:00pm 16.9 16.6 11.4 70 3.1 S 4 9 2 5 1024.3 1021.3 0.0
23/12:30pm 16.0 14.9 10.7 71 3.0 SW 7 11 4 6 1024.7 1021.8 0.0
23/12:00pm 16.8 14.9 9.2 61 4.1 SSW 9 15 5 8 1024.9 1022.0 0.0
23/11:30am 17.7 16.6 10.1 61 4.3 SW 6 11 3 6 1025.3 1022.3 0.0
23/11:00am 15.5 13.3 10.9 74 2.6 SSW 13 22 7 12 1025.7 1022.8 0.0
23/10:30am 17.8 15.3 9.7 59 4.5 ESE 13 19 7 10 1026.0 1023.1 0.0
23/10:00am 17.0 14.7 10.6 66 3.6 SSE 13 19 7 10 1026.5 1023.6 0.0
23/09:30am 16.0 13.7 10.5 70 3.1 SE 13 15 7 8 1026.7 1023.8 0.0
23/09:00am 14.7 12.4 10.5 76 2.3 ESE 13 15 7 8 1026.7 1023.8 0.0
23/08:30am 13.9 12.3 10.3 79 2.0 ESE 9 13 5 7 1026.7 1023.8 0.0
23/08:00am 12.9 10.9 10.1 83 1.5 ESE 11 15 6 8 1026.6 1023.7 0.0
23/07:30am 11.4 9.6 9.5 88 1.0 SE 9 13 5 7 1026.4 1023.5 0.0
23/07:00am 9.7 7.7 8.8 94 0.5 ESE 9 11 5 6 1026.1 1023.2 0.0
23/06:30am 9.1 6.9 7.9 92 0.6 SE 9 11 5 6 1025.8 1022.9 0.0
23/06:00am 9.3 6.7 7.9 91 0.7 E 11 13 6 7 1025.5 1022.6 0.0
23/05:30am 10.3 8.3 8.7 90 0.8 ENE 9 11 5 6 1025.3 1022.3 0.0
23/05:00am 10.5 8.2 8.9 90 0.8 SSE 11 19 6 10 1024.9 1022.0 0.0
23/04:30am 10.7 8.0 9.1 90 0.8 SSE 13 17 7 9 1024.6 1021.7 0.0
23/04:00am 10.9 8.0 9.5 91 0.7 ESE 15 19 8 10 1024.5 1021.6 0.0
23/03:30am 10.7 7.8 9.5 92 0.6 ESE 15 19 8 10 1024.8 1021.9 0.0
23/03:00am 10.7 8.6 9.6 93 0.6 ESE 11 17 6 9 1025.1 1022.2 0.0
23/02:30am 10.2 8.0 9.4 95 0.4 ESE 11 13 6 7 1025.5 1022.6 0.0
23/02:00am 9.2 7.1 8.1 93 0.6 ESE 9 11 5 6 1025.9 1023.0 0.0
23/01:59am 9.2 7.1 8.1 93 0.6 ESE 9 11 5 6 1025.9 1023.0 0.0
23/01:30am 9.9 7.2 9.0 94 0.5 SE 13 15 7 8 1025.9 1023.0 0.0
23/01:00am 9.4 6.6 8.5 94 0.5 ESE 13 15 7 8 1026.1 1023.2 0.0

Other Formats:

Comma delimited format used in spreadsheet applications
http://www.bom.gov.au/fwo/IDN60801/IDN60801.94588.axf

JavaScript Object Notation format (JSON) in row-major order
http://www.bom.gov.au/fwo/IDN60801/IDN60801.94588.json